sensor_id;sensor_type;location;lat;lon;timestamp;temperature;humidity
40374;DHT22;26079;45.958;12.492;2022-07-29T00:02:18;24.20;80.80
40374;DHT22;26079;45.958;12.492;2022-07-29T00:04:44;24.30;80.40
40374;DHT22;26079;45.958;12.492;2022-07-29T00:07:09;24.40;80.00
40374;DHT22;26079;45.958;12.492;2022-07-29T00:09:35;24.50;80.10
40374;DHT22;26079;45.958;12.492;2022-07-29T00:12:01;24.50;79.30
40374;DHT22;26079;45.958;12.492;2022-07-29T00:14:28;24.60;79.20
40374;DHT22;26079;45.958;12.492;2022-07-29T00:16:54;24.70;79.30
40374;DHT22;26079;45.958;12.492;2022-07-29T00:19:19;24.70;79.40
40374;DHT22;26079;45.958;12.492;2022-07-29T00:21:45;24.80;79.40
40374;DHT22;26079;45.958;12.492;2022-07-29T00:26:55;24.90;79.30
40374;DHT22;26079;45.958;12.492;2022-07-29T00:29:21;24.80;79.30
40374;DHT22;26079;45.958;12.492;2022-07-29T00:31:46;24.70;79.20
40374;DHT22;26079;45.958;12.492;2022-07-29T00:34:12;24.60;79.70
40374;DHT22;26079;45.958;12.492;2022-07-29T00:36:56;24.60;78.90
40374;DHT22;26079;45.958;12.492;2022-07-29T00:39:22;24.50;79.40
40374;DHT22;26079;45.958;12.492;2022-07-29T00:41:48;24.50;79.80
40374;DHT22;26079;45.958;12.492;2022-07-29T00:44:14;24.50;79.50
40374;DHT22;26079;45.958;12.492;2022-07-29T00:46:40;24.50;79.50
40374;DHT22;26079;45.958;12.492;2022-07-29T00:49:05;24.60;79.60
40374;DHT22;26079;45.958;12.492;2022-07-29T00:51:36;24.70;79.80
40374;DHT22;26079;45.958;12.492;2022-07-29T00:54:03;24.70;79.70
40374;DHT22;26079;45.958;12.492;2022-07-29T00:56:33;24.70;79.60
40374;DHT22;26079;45.958;12.492;2022-07-29T00:58:59;24.80;78.90
40374;DHT22;26079;45.958;12.492;2022-07-29T01:01:26;24.80;78.80
40374;DHT22;26079;45.958;12.492;2022-07-29T01:03:52;24.80;78.80
40374;DHT22;26079;45.958;12.492;2022-07-29T01:06:18;24.80;78.70
40374;DHT22;26079;45.958;12.492;2022-07-29T01:08:45;24.90;78.70
40374;DHT22;26079;45.958;12.492;2022-07-29T01:11:12;24.90;78.80
40374;DHT22;26079;45.958;12.492;2022-07-29T01:13:38;25.00;78.50
40374;DHT22;26079;45.958;12.492;2022-07-29T01:16:20;25.10;78.20
40374;DHT22;26079;45.958;12.492;2022-07-29T01:18:47;25.10;76.20
40374;DHT22;26079;45.958;12.492;2022-07-29T01:29:45;25.20;73.00
40374;DHT22;26079;45.958;12.492;2022-07-29T01:32:19;25.30;72.70
40374;DHT22;26079;45.958;12.492;2022-07-29T01:37:36;25.50;72.70
40374;DHT22;26079;45.958;12.492;2022-07-29T01:40:05;25.50;72.50
40374;DHT22;26079;45.958;12.492;2022-07-29T01:42:39;25.50;72.90
40374;DHT22;26079;45.958;12.492;2022-07-29T01:48:13;25.40;73.10
40374;DHT22;26079;45.958;12.492;2022-07-29T01:51:03;25.30;72.90
40374;DHT22;26079;45.958;12.492;2022-07-29T01:53:50;25.30;73.10
40374;DHT22;26079;45.958;12.492;2022-07-29T01:56:21;25.20;73.10
40374;DHT22;26079;45.958;12.492;2022-07-29T01:58:49;25.20;73.20
40374;DHT22;26079;45.958;12.492;2022-07-29T02:01:16;25.20;73.70
40374;DHT22;26079;45.958;12.492;2022-07-29T02:03:44;25.20;75.20
40374;DHT22;26079;45.958;12.492;2022-07-29T02:06:11;25.20;76.00
40374;DHT22;26079;45.958;12.492;2022-07-29T02:08:38;25.20;74.80
40374;DHT22;26079;45.958;12.492;2022-07-29T02:11:05;25.20;73.40
40374;DHT22;26079;45.958;12.492;2022-07-29T02:13:32;25.30;72.70
40374;DHT22;26079;45.958;12.492;2022-07-29T02:16:00;25.30;72.60
40374;DHT22;26079;45.958;12.492;2022-07-29T02:18:28;25.30;72.90
40374;DHT22;26079;45.958;12.492;2022-07-29T02:20:56;25.30;73.50
40374;DHT22;26079;45.958;12.492;2022-07-29T02:23:25;25.20;73.80
40374;DHT22;26079;45.958;12.492;2022-07-29T02:26:00;25.20;73.90
40374;DHT22;26079;45.958;12.492;2022-07-29T02:28:28;25.10;74.10
40374;DHT22;26079;45.958;12.492;2022-07-29T02:30:59;25.10;74.80
40374;DHT22;26079;45.958;12.492;2022-07-29T02:33:26;25.00;75.10
40374;DHT22;26079;45.958;12.492;2022-07-29T02:35:53;24.90;75.60
40374;DHT22;26079;45.958;12.492;2022-07-29T02:38:21;24.80;76.50
40374;DHT22;26079;45.958;12.492;2022-07-29T02:41:10;24.70;77.30
40374;DHT22;26079;45.958;12.492;2022-07-29T02:43:37;24.50;78.10
40374;DHT22;26079;45.958;12.492;2022-07-29T02:46:06;24.40;78.80
40374;DHT22;26079;45.958;12.492;2022-07-29T02:48:40;24.40;79.10
40374;DHT22;26079;45.958;12.492;2022-07-29T02:51:19;24.30;79.30
40374;DHT22;26079;45.958;12.492;2022-07-29T02:53:51;24.20;79.80
40374;DHT22;26079;45.958;12.492;2022-07-29T02:56:23;24.10;80.30
40374;DHT22;26079;45.958;12.492;2022-07-29T02:58:55;24.10;80.70
40374;DHT22;26079;45.958;12.492;2022-07-29T03:01:24;24.00;81.10
40374;DHT22;26079;45.958;12.492;2022-07-29T03:03:52;23.90;81.20
40374;DHT22;26079;45.958;12.492;2022-07-29T03:06:21;23.90;81.00
40374;DHT22;26079;45.958;12.492;2022-07-29T03:08:48;23.90;80.60
40374;DHT22;26079;45.958;12.492;2022-07-29T03:11:15;23.80;80.70
40374;DHT22;26079;45.958;12.492;2022-07-29T03:13:42;23.90;80.80
40374;DHT22;26079;45.958;12.492;2022-07-29T03:16:08;23.90;80.90
40374;DHT22;26079;45.958;12.492;2022-07-29T03:18:35;23.80;81.10
40374;DHT22;26079;45.958;12.492;2022-07-29T03:21:02;23.80;81.30
40374;DHT22;26079;45.958;12.492;2022-07-29T03:23:28;23.80;81.50
40374;DHT22;26079;45.958;12.492;2022-07-29T03:25:54;23.80;81.70
40374;DHT22;26079;45.958;12.492;2022-07-29T03:28:20;23.80;81.80
40374;DHT22;26079;45.958;12.492;2022-07-29T03:30:46;23.80;81.50
40374;DHT22;26079;45.958;12.492;2022-07-29T03:33:12;23.80;81.40
40374;DHT22;26079;45.958;12.492;2022-07-29T03:35:38;23.80;81.80
40374;DHT22;26079;45.958;12.492;2022-07-29T03:38:04;23.70;82.10
40374;DHT22;26079;45.958;12.492;2022-07-29T03:43:08;23.70;82.10
40374;DHT22;26079;45.958;12.492;2022-07-29T03:45:35;23.60;82.60
40374;DHT22;26079;45.958;12.492;2022-07-29T03:48:07;23.60;82.90
40374;DHT22;26079;45.958;12.492;2022-07-29T03:50:34;23.60;83.30
40374;DHT22;26079;45.958;12.492;2022-07-29T03:53:01;23.60;83.10
40374;DHT22;26079;45.958;12.492;2022-07-29T03:55:29;23.60;82.90
40374;DHT22;26079;45.958;12.492;2022-07-29T03:57:57;23.60;83.10
40374;DHT22;26079;45.958;12.492;2022-07-29T04:00:24;23.50;82.70
40374;DHT22;26079;45.958;12.492;2022-07-29T04:02:50;23.40;83.50
40374;DHT22;26079;45.958;12.492;2022-07-29T04:05:18;23.50;83.10
40374;DHT22;26079;45.958;12.492;2022-07-29T04:07:45;23.40;83.40
40374;DHT22;26079;45.958;12.492;2022-07-29T04:10:12;23.30;83.40
40374;DHT22;26079;45.958;12.492;2022-07-29T04:12:37;23.30;83.70
40374;DHT22;26079;45.958;12.492;2022-07-29T04:15:04;23.30;83.70
40374;DHT22;26079;45.958;12.492;2022-07-29T04:17:29;23.20;84.10
40374;DHT22;26079;45.958;12.492;2022-07-29T04:19:55;23.20;84.10
40374;DHT22;26079;45.958;12.492;2022-07-29T04:22:21;23.20;84.50
40374;DHT22;26079;45.958;12.492;2022-07-29T04:24:47;23.20;84.20
40374;DHT22;26079;45.958;12.492;2022-07-29T04:27:12;23.10;84.80
40374;DHT22;26079;45.958;12.492;2022-07-29T04:29:38;23.10;85.20
40374;DHT22;26079;45.958;12.492;2022-07-29T04:32:04;23.20;85.10
40374;DHT22;26079;45.958;12.492;2022-07-29T04:34:30;23.20;84.00
40374;DHT22;26079;45.958;12.492;2022-07-29T04:36:55;23.30;83.80
40374;DHT22;26079;45.958;12.492;2022-07-29T04:39:21;23.40;84.00
40374;DHT22;26079;45.958;12.492;2022-07-29T04:41:47;23.40;83.80
40374;DHT22;26079;45.958;12.492;2022-07-29T04:44:13;23.50;83.30
40374;DHT22;26079;45.958;12.492;2022-07-29T04:46:39;23.50;83.60
40374;DHT22;26079;45.958;12.492;2022-07-29T04:49:04;23.50;84.50
40374;DHT22;26079;45.958;12.492;2022-07-29T04:51:30;23.40;85.70
40374;DHT22;26079;45.958;12.492;2022-07-29T04:53:56;23.40;85.00
40374;DHT22;26079;45.958;12.492;2022-07-29T04:56:22;23.40;84.40
40374;DHT22;26079;45.958;12.492;2022-07-29T04:58:48;23.50;84.40
40374;DHT22;26079;45.958;12.492;2022-07-29T05:01:14;23.50;84.50
40374;DHT22;26079;45.958;12.492;2022-07-29T05:03:40;23.70;84.30
40374;DHT22;26079;45.958;12.492;2022-07-29T05:06:06;23.90;83.10
40374;DHT22;26079;45.958;12.492;2022-07-29T05:08:32;24.20;82.20
40374;DHT22;26079;45.958;12.492;2022-07-29T05:10:57;24.50;82.10
40374;DHT22;26079;45.958;12.492;2022-07-29T05:13:23;24.70;79.20
40374;DHT22;26079;45.958;12.492;2022-07-29T05:15:49;24.80;78.40
40374;DHT22;26079;45.958;12.492;2022-07-29T05:18:15;24.90;78.40
40374;DHT22;26079;45.958;12.492;2022-07-29T05:20:41;25.10;78.10
40374;DHT22;26079;45.958;12.492;2022-07-29T05:23:06;25.40;76.90
40374;DHT22;26079;45.958;12.492;2022-07-29T05:25:32;25.40;76.00
40374;DHT22;26079;45.958;12.492;2022-07-29T05:27:58;25.50;75.10
40374;DHT22;26079;45.958;12.492;2022-07-29T05:30:24;25.70;74.80
40374;DHT22;26079;45.958;12.492;2022-07-29T05:32:50;25.80;74.70
40374;DHT22;26079;45.958;12.492;2022-07-29T05:35:16;26.20;73.70
40374;DHT22;26079;45.958;12.492;2022-07-29T05:37:42;26.90;71.90
40374;DHT22;26079;45.958;12.492;2022-07-29T05:40:08;27.70;69.80
40374;DHT22;26079;45.958;12.492;2022-07-29T05:42:34;28.40;68.00
40374;DHT22;26079;45.958;12.492;2022-07-29T05:45:00;29.00;66.40
40374;DHT22;26079;45.958;12.492;2022-07-29T05:47:26;29.50;65.30
40374;DHT22;26079;45.958;12.492;2022-07-29T05:49:52;30.00;63.90
40374;DHT22;26079;45.958;12.492;2022-07-29T05:52:18;30.20;63.70
40374;DHT22;26079;45.958;12.492;2022-07-29T05:54:43;30.50;62.60
40374;DHT22;26079;45.958;12.492;2022-07-29T05:57:16;30.90;62.10
40374;DHT22;26079;45.958;12.492;2022-07-29T05:59:42;30.90;62.70
40374;DHT22;26079;45.958;12.492;2022-07-29T06:02:08;31.40;61.40
40374;DHT22;26079;45.958;12.492;2022-07-29T06:04:34;31.60;61.70
40374;DHT22;26079;45.958;12.492;2022-07-29T06:06:59;31.90;59.80
40374;DHT22;26079;45.958;12.492;2022-07-29T06:09:25;31.90;59.60
40374;DHT22;26079;45.958;12.492;2022-07-29T06:11:51;32.20;59.20
40374;DHT22;26079;45.958;12.492;2022-07-29T06:14:17;32.30;59.10
40374;DHT22;26079;45.958;12.492;2022-07-29T06:16:43;32.30;57.70
40374;DHT22;26079;45.958;12.492;2022-07-29T06:19:09;32.40;58.40
40374;DHT22;26079;45.958;12.492;2022-07-29T06:21:35;32.40;58.10
40374;DHT22;26079;45.958;12.492;2022-07-29T06:24:00;32.70;58.10
40374;DHT22;26079;45.958;12.492;2022-07-29T06:26:26;33.10;57.60
40374;DHT22;26079;45.958;12.492;2022-07-29T06:28:52;33.30;56.70
40374;DHT22;26079;45.958;12.492;2022-07-29T06:31:17;33.10;57.80
40374;DHT22;26079;45.958;12.492;2022-07-29T06:33:43;33.20;57.90
40374;DHT22;26079;45.958;12.492;2022-07-29T06:36:09;33.60;57.30
40374;DHT22;26079;45.958;12.492;2022-07-29T06:38:34;33.80;55.40
40374;DHT22;26079;45.958;12.492;2022-07-29T06:41:00;34.00;55.70
40374;DHT22;26079;45.958;12.492;2022-07-29T06:43:33;34.20;57.80
40374;DHT22;26079;45.958;12.492;2022-07-29T06:46:02;34.70;54.80
40374;DHT22;26079;45.958;12.492;2022-07-29T06:48:28;35.00;54.20
40374;DHT22;26079;45.958;12.492;2022-07-29T06:50:54;35.20;54.20
40374;DHT22;26079;45.958;12.492;2022-07-29T06:53:20;35.20;52.60
40374;DHT22;26079;45.958;12.492;2022-07-29T06:55:46;35.10;53.30
40374;DHT22;26079;45.958;12.492;2022-07-29T06:58:11;34.20;55.60
40374;DHT22;26079;45.958;12.492;2022-07-29T07:00:39;33.80;56.40
40374;DHT22;26079;45.958;12.492;2022-07-29T07:03:05;33.00;56.00
40374;DHT22;26079;45.958;12.492;2022-07-29T07:05:31;32.50;55.00
40374;DHT22;26079;45.958;12.492;2022-07-29T07:07:57;31.90;55.40
40374;DHT22;26079;45.958;12.492;2022-07-29T07:10:22;31.10;57.70
40374;DHT22;26079;45.958;12.492;2022-07-29T07:12:48;30.80;58.30
40374;DHT22;26079;45.958;12.492;2022-07-29T07:15:14;30.60;59.20
40374;DHT22;26079;45.958;12.492;2022-07-29T07:17:40;30.30;59.10
40374;DHT22;26079;45.958;12.492;2022-07-29T07:20:06;30.10;61.10
40374;DHT22;26079;45.958;12.492;2022-07-29T07:22:31;29.80;63.30
40374;DHT22;26079;45.958;12.492;2022-07-29T07:24:57;29.70;63.50
40374;DHT22;26079;45.958;12.492;2022-07-29T07:27:23;29.70;62.30
40374;DHT22;26079;45.958;12.492;2022-07-29T07:29:48;29.80;60.40
40374;DHT22;26079;45.958;12.492;2022-07-29T07:32:14;29.70;58.70
40374;DHT22;26079;45.958;12.492;2022-07-29T07:34:42;29.60;61.70
40374;DHT22;26079;45.958;12.492;2022-07-29T07:37:08;29.50;60.80
40374;DHT22;26079;45.958;12.492;2022-07-29T07:39:34;29.40;61.20
40374;DHT22;26079;45.958;12.492;2022-07-29T07:42:00;29.60;59.50
40374;DHT22;26079;45.958;12.492;2022-07-29T07:44:26;29.70;59.90
40374;DHT22;26079;45.958;12.492;2022-07-29T07:46:51;29.80;59.40
40374;DHT22;26079;45.958;12.492;2022-07-29T07:49:17;30.00;59.20
40374;DHT22;26079;45.958;12.492;2022-07-29T07:51:43;30.00;58.60
40374;DHT22;26079;45.958;12.492;2022-07-29T07:54:09;29.80;58.90
40374;DHT22;26079;45.958;12.492;2022-07-29T07:56:35;29.90;58.60
40374;DHT22;26079;45.958;12.492;2022-07-29T07:59:01;29.90;58.60
40374;DHT22;26079;45.958;12.492;2022-07-29T08:01:26;30.00;57.90
40374;DHT22;26079;45.958;12.492;2022-07-29T08:03:52;29.90;58.50
40374;DHT22;26079;45.958;12.492;2022-07-29T08:06:17;29.90;58.60
40374;DHT22;26079;45.958;12.492;2022-07-29T08:08:43;30.00;59.70
40374;DHT22;26079;45.958;12.492;2022-07-29T08:11:09;30.10;59.00
40374;DHT22;26079;45.958;12.492;2022-07-29T08:13:35;30.20;57.90
40374;DHT22;26079;45.958;12.492;2022-07-29T08:16:01;30.20;58.20
40374;DHT22;26079;45.958;12.492;2022-07-29T08:18:31;30.40;57.30
40374;DHT22;26079;45.958;12.492;2022-07-29T08:20:57;30.20;57.20
40374;DHT22;26079;45.958;12.492;2022-07-29T08:23:23;30.00;58.30
40374;DHT22;26079;45.958;12.492;2022-07-29T08:25:50;30.00;59.90
40374;DHT22;26079;45.958;12.492;2022-07-29T08:28:16;30.10;59.30
40374;DHT22;26079;45.958;12.492;2022-07-29T08:30:42;30.20;59.50
40374;DHT22;26079;45.958;12.492;2022-07-29T08:33:07;30.40;58.70
40374;DHT22;26079;45.958;12.492;2022-07-29T08:35:33;30.50;58.40
40374;DHT22;26079;45.958;12.492;2022-07-29T08:37:59;30.60;56.60
40374;DHT22;26079;45.958;12.492;2022-07-29T08:40:24;30.60;57.20
40374;DHT22;26079;45.958;12.492;2022-07-29T08:42:51;30.60;57.80
40374;DHT22;26079;45.958;12.492;2022-07-29T08:45:16;30.80;57.90
40374;DHT22;26079;45.958;12.492;2022-07-29T08:47:44;30.80;56.20
40374;DHT22;26079;45.958;12.492;2022-07-29T08:50:11;30.80;56.20
40374;DHT22;26079;45.958;12.492;2022-07-29T08:52:40;30.80;55.80
40374;DHT22;26079;45.958;12.492;2022-07-29T08:55:07;30.50;57.10
40374;DHT22;26079;45.958;12.492;2022-07-29T08:57:34;30.60;56.50
40374;DHT22;26079;45.958;12.492;2022-07-29T09:00:01;30.60;56.50
40374;DHT22;26079;45.958;12.492;2022-07-29T09:02:29;30.60;56.90
40374;DHT22;26079;45.958;12.492;2022-07-29T09:05:00;30.30;56.90
40374;DHT22;26079;45.958;12.492;2022-07-29T09:07:27;30.30;57.30
40374;DHT22;26079;45.958;12.492;2022-07-29T09:09:53;30.20;57.00
40374;DHT22;26079;45.958;12.492;2022-07-29T09:12:19;30.10;57.60
40374;DHT22;26079;45.958;12.492;2022-07-29T09:14:47;30.20;58.20
40374;DHT22;26079;45.958;12.492;2022-07-29T09:17:14;30.50;57.20
40374;DHT22;26079;45.958;12.492;2022-07-29T09:19:42;30.70;56.20
40374;DHT22;26079;45.958;12.492;2022-07-29T09:22:08;30.80;57.10
40374;DHT22;26079;45.958;12.492;2022-07-29T09:24:45;30.80;56.80
40374;DHT22;26079;45.958;12.492;2022-07-29T09:27:20;30.70;56.80
40374;DHT22;26079;45.958;12.492;2022-07-29T09:29:46;30.70;57.60
40374;DHT22;26079;45.958;12.492;2022-07-29T09:32:12;30.90;57.60
40374;DHT22;26079;45.958;12.492;2022-07-29T09:34:38;31.10;56.50
40374;DHT22;26079;45.958;12.492;2022-07-29T09:37:04;31.40;56.20
40374;DHT22;26079;45.958;12.492;2022-07-29T09:39:33;31.50;56.00
40374;DHT22;26079;45.958;12.492;2022-07-29T09:42:03;31.40;55.80
40374;DHT22;26079;45.958;12.492;2022-07-29T09:44:49;31.20;56.10
40374;DHT22;26079;45.958;12.492;2022-07-29T09:47:17;31.20;56.80
40374;DHT22;26079;45.958;12.492;2022-07-29T09:49:55;31.10;56.50
40374;DHT22;26079;45.958;12.492;2022-07-29T09:52:23;30.90;57.30
40374;DHT22;26079;45.958;12.492;2022-07-29T09:54:49;30.80;57.70
40374;DHT22;26079;45.958;12.492;2022-07-29T09:57:29;30.80;57.20
40374;DHT22;26079;45.958;12.492;2022-07-29T10:00:09;31.00;57.60
40374;DHT22;26079;45.958;12.492;2022-07-29T10:02:38;31.30;57.50
40374;DHT22;26079;45.958;12.492;2022-07-29T10:05:06;31.40;56.90
40374;DHT22;26079;45.958;12.492;2022-07-29T10:10:24;31.40;57.10
40374;DHT22;26079;45.958;12.492;2022-07-29T10:15:22;31.50;57.20
40374;DHT22;26079;45.958;12.492;2022-07-29T10:17:49;31.70;56.10
40374;DHT22;26079;45.958;12.492;2022-07-29T10:20:15;31.70;56.20
40374;DHT22;26079;45.958;12.492;2022-07-29T10:22:41;31.50;55.80
40374;DHT22;26079;45.958;12.492;2022-07-29T10:25:08;31.20;56.30
40374;DHT22;26079;45.958;12.492;2022-07-29T10:27:35;31.30;57.30
40374;DHT22;26079;45.958;12.492;2022-07-29T10:30:02;31.50;56.90
40374;DHT22;26079;45.958;12.492;2022-07-29T10:36:03;31.70;55.60
40374;DHT22;26079;45.958;12.492;2022-07-29T10:44:35;31.80;55.30
40374;DHT22;26079;45.958;12.492;2022-07-29T10:46:42;31.70;55.10
40374;DHT22;26079;45.958;12.492;2022-07-29T10:49:16;31.50;55.60
40374;DHT22;26079;45.958;12.492;2022-07-29T10:59:43;31.20;55.90
40374;DHT22;26079;45.958;12.492;2022-07-29T11:04:58;31.70;55.30
40374;DHT22;26079;45.958;12.492;2022-07-29T11:07:25;32.10;54.10
40374;DHT22;26079;45.958;12.492;2022-07-29T11:18:19;32.00;53.70
40374;DHT22;26079;45.958;12.492;2022-07-29T11:20:50;32.20;53.90
40374;DHT22;26079;45.958;12.492;2022-07-29T11:23:28;32.30;53.20
40374;DHT22;26079;45.958;12.492;2022-07-29T11:26:19;32.30;54.50
40374;DHT22;26079;45.958;12.492;2022-07-29T11:29:06;32.30;54.50
40374;DHT22;26079;45.958;12.492;2022-07-29T11:31:47;32.40;53.90
40374;DHT22;26079;45.958;12.492;2022-07-29T11:34:31;32.60;53.80
40374;DHT22;26079;45.958;12.492;2022-07-29T11:39:44;32.80;52.60
40374;DHT22;26079;45.958;12.492;2022-07-29T11:45:01;32.80;53.10
40374;DHT22;26079;45.958;12.492;2022-07-29T11:47:28;32.60;53.10
40374;DHT22;26079;45.958;12.492;2022-07-29T11:49:56;32.40;53.20
40374;DHT22;26079;45.958;12.492;2022-07-29T11:52:24;32.30;53.10
40374;DHT22;26079;45.958;12.492;2022-07-29T11:54:57;32.10;54.20
40374;DHT22;26079;45.958;12.492;2022-07-29T11:57:25;32.10;54.00
40374;DHT22;26079;45.958;12.492;2022-07-29T11:59:50;32.30;54.50
40374;DHT22;26079;45.958;12.492;2022-07-29T12:02:16;32.40;53.50
40374;DHT22;26079;45.958;12.492;2022-07-29T12:04:53;32.70;53.70
40374;DHT22;26079;45.958;12.492;2022-07-29T12:07:29;32.70;53.30
40374;DHT22;26079;45.958;12.492;2022-07-29T12:09:55;33.00;52.60
40374;DHT22;26079;45.958;12.492;2022-07-29T12:12:21;33.10;52.70
40374;DHT22;26079;45.958;12.492;2022-07-29T12:14:48;33.20;52.60
40374;DHT22;26079;45.958;12.492;2022-07-29T12:17:32;33.10;53.20
40374;DHT22;26079;45.958;12.492;2022-07-29T12:20:00;33.20;52.80
40374;DHT22;26079;45.958;12.492;2022-07-29T12:22:34;33.10;52.20
40374;DHT22;26079;45.958;12.492;2022-07-29T12:25:08;33.00;52.90
40374;DHT22;26079;45.958;12.492;2022-07-29T12:27:35;33.10;52.30
40374;DHT22;26079;45.958;12.492;2022-07-29T12:30:07;33.10;52.60
40374;DHT22;26079;45.958;12.492;2022-07-29T12:32:34;33.10;52.70
40374;DHT22;26079;45.958;12.492;2022-07-29T12:35:12;33.10;52.10
40374;DHT22;26079;45.958;12.492;2022-07-29T12:37:39;33.20;53.00
40374;DHT22;26079;45.958;12.492;2022-07-29T12:40:07;33.20;52.60
40374;DHT22;26079;45.958;12.492;2022-07-29T12:42:33;33.20;52.00
40374;DHT22;26079;45.958;12.492;2022-07-29T12:45:00;33.30;52.40
40374;DHT22;26079;45.958;12.492;2022-07-29T12:47:27;33.30;52.40
40374;DHT22;26079;45.958;12.492;2022-07-29T12:50:14;33.40;50.40
40374;DHT22;26079;45.958;12.492;2022-07-29T12:52:44;33.50;50.60
40374;DHT22;26079;45.958;12.492;2022-07-29T12:55:09;33.50;50.90
40374;DHT22;26079;45.958;12.492;2022-07-29T12:57:49;33.60;50.30
40374;DHT22;26079;45.958;12.492;2022-07-29T13:00:25;33.40;50.90
40374;DHT22;26079;45.958;12.492;2022-07-29T13:02:54;33.50;50.60
40374;DHT22;26079;45.958;12.492;2022-07-29T13:05:20;33.50;50.00
40374;DHT22;26079;45.958;12.492;2022-07-29T13:07:46;33.50;49.20
40374;DHT22;26079;45.958;12.492;2022-07-29T13:10:20;33.50;49.50
40374;DHT22;26079;45.958;12.492;2022-07-29T13:13:10;33.50;49.50
40374;DHT22;26079;45.958;12.492;2022-07-29T13:15:41;33.60;49.70
40374;DHT22;26079;45.958;12.492;2022-07-29T13:18:27;33.50;49.50
40374;DHT22;26079;45.958;12.492;2022-07-29T13:20:54;33.70;49.50
40374;DHT22;26079;45.958;12.492;2022-07-29T13:23:20;33.60;49.80
40374;DHT22;26079;45.958;12.492;2022-07-29T13:25:46;33.70;49.60
40374;DHT22;26079;45.958;12.492;2022-07-29T13:28:11;33.80;49.30
40374;DHT22;26079;45.958;12.492;2022-07-29T13:30:38;34.00;48.90
40374;DHT22;26079;45.958;12.492;2022-07-29T13:33:04;34.10;49.00
40374;DHT22;26079;45.958;12.492;2022-07-29T13:35:30;34.20;48.10
40374;DHT22;26079;45.958;12.492;2022-07-29T13:37:56;34.10;48.00
40374;DHT22;26079;45.958;12.492;2022-07-29T13:40:21;34.00;46.70
40374;DHT22;26079;45.958;12.492;2022-07-29T13:42:47;33.90;47.90
40374;DHT22;26079;45.958;12.492;2022-07-29T13:45:13;33.70;49.20
40374;DHT22;26079;45.958;12.492;2022-07-29T13:47:39;33.80;49.50
40374;DHT22;26079;45.958;12.492;2022-07-29T13:50:07;33.90;49.30
40374;DHT22;26079;45.958;12.492;2022-07-29T13:52:35;33.90;49.40
40374;DHT22;26079;45.958;12.492;2022-07-29T13:55:02;34.00;48.90
40374;DHT22;26079;45.958;12.492;2022-07-29T13:57:28;33.90;49.00
40374;DHT22;26079;45.958;12.492;2022-07-29T13:59:54;33.90;46.70
40374;DHT22;26079;45.958;12.492;2022-07-29T14:02:20;33.70;49.90
40374;DHT22;26079;45.958;12.492;2022-07-29T14:04:46;33.70;49.40
40374;DHT22;26079;45.958;12.492;2022-07-29T14:07:12;33.80;49.70
40374;DHT22;26079;45.958;12.492;2022-07-29T14:09:38;33.90;49.10
40374;DHT22;26079;45.958;12.492;2022-07-29T14:12:04;34.00;48.80
40374;DHT22;26079;45.958;12.492;2022-07-29T14:14:29;33.90;48.90
40374;DHT22;26079;45.958;12.492;2022-07-29T14:16:57;33.90;48.80
40374;DHT22;26079;45.958;12.492;2022-07-29T14:19:22;33.90;48.30
40374;DHT22;26079;45.958;12.492;2022-07-29T14:21:48;34.00;48.20
40374;DHT22;26079;45.958;12.492;2022-07-29T14:24:14;33.90;49.10
40374;DHT22;26079;45.958;12.492;2022-07-29T14:26:39;34.00;48.20
40374;DHT22;26079;45.958;12.492;2022-07-29T14:29:05;33.90;48.00
40374;DHT22;26079;45.958;12.492;2022-07-29T14:31:31;33.60;49.10
40374;DHT22;26079;45.958;12.492;2022-07-29T14:33:56;33.50;49.70
40374;DHT22;26079;45.958;12.492;2022-07-29T14:36:22;33.60;49.70
40374;DHT22;26079;45.958;12.492;2022-07-29T14:38:48;33.80;49.50
40374;DHT22;26079;45.958;12.492;2022-07-29T14:41:13;34.00;49.40
40374;DHT22;26079;45.958;12.492;2022-07-29T14:43:39;34.10;48.80
40374;DHT22;26079;45.958;12.492;2022-07-29T14:46:05;34.10;49.00
40374;DHT22;26079;45.958;12.492;2022-07-29T14:48:32;34.20;49.00
40374;DHT22;26079;45.958;12.492;2022-07-29T14:50:58;34.00;49.60
40374;DHT22;26079;45.958;12.492;2022-07-29T14:53:24;33.90;49.00
40374;DHT22;26079;45.958;12.492;2022-07-29T14:55:50;34.00;48.70
40374;DHT22;26079;45.958;12.492;2022-07-29T14:58:15;34.10;49.10
40374;DHT22;26079;45.958;12.492;2022-07-29T15:00:41;34.20;48.60
40374;DHT22;26079;45.958;12.492;2022-07-29T15:03:07;34.00;49.00
40374;DHT22;26079;45.958;12.492;2022-07-29T15:05:35;34.00;49.40
40374;DHT22;26079;45.958;12.492;2022-07-29T15:08:02;33.90;49.60
40374;DHT22;26079;45.958;12.492;2022-07-29T15:10:28;33.70;50.20
40374;DHT22;26079;45.958;12.492;2022-07-29T15:12:54;33.60;50.60
40374;DHT22;26079;45.958;12.492;2022-07-29T15:15:20;33.60;51.30
40374;DHT22;26079;45.958;12.492;2022-07-29T15:17:46;33.50;51.60
40374;DHT22;26079;45.958;12.492;2022-07-29T15:20:12;33.50;50.90
40374;DHT22;26079;45.958;12.492;2022-07-29T15:22:39;33.70;50.40
40374;DHT22;26079;45.958;12.492;2022-07-29T15:25:06;33.90;50.00
40374;DHT22;26079;45.958;12.492;2022-07-29T15:27:32;34.00;50.50
40374;DHT22;26079;45.958;12.492;2022-07-29T15:29:58;33.80;50.80
40374;DHT22;26079;45.958;12.492;2022-07-29T15:32:23;33.60;51.60
40374;DHT22;26079;45.958;12.492;2022-07-29T15:34:49;33.70;51.10
40374;DHT22;26079;45.958;12.492;2022-07-29T15:37:15;33.60;51.50
40374;DHT22;26079;45.958;12.492;2022-07-29T15:39:40;33.40;51.80
40374;DHT22;26079;45.958;12.492;2022-07-29T15:42:06;33.20;51.80
40374;DHT22;26079;45.958;12.492;2022-07-29T15:44:32;33.10;52.00
40374;DHT22;26079;45.958;12.492;2022-07-29T15:46:58;33.10;51.80
40374;DHT22;26079;45.958;12.492;2022-07-29T15:49:37;33.20;51.90
40374;DHT22;26079;45.958;12.492;2022-07-29T15:52:05;33.10;52.30
40374;DHT22;26079;45.958;12.492;2022-07-29T15:54:32;33.10;52.40
40374;DHT22;26079;45.958;12.492;2022-07-29T15:56:58;33.10;52.30
40374;DHT22;26079;45.958;12.492;2022-07-29T15:59:24;33.20;52.30
40374;DHT22;26079;45.958;12.492;2022-07-29T16:01:50;33.50;50.90
40374;DHT22;26079;45.958;12.492;2022-07-29T16:04:16;33.50;51.80
40374;DHT22;26079;45.958;12.492;2022-07-29T16:06:43;33.60;51.90
40374;DHT22;26079;45.958;12.492;2022-07-29T16:09:10;33.60;52.10
40374;DHT22;26079;45.958;12.492;2022-07-29T16:11:36;33.40;52.60
40374;DHT22;26079;45.958;12.492;2022-07-29T16:14:02;33.20;54.20
40374;DHT22;26079;45.958;12.492;2022-07-29T16:16:27;33.00;55.00
40374;DHT22;26079;45.958;12.492;2022-07-29T16:18:53;32.70;55.70